sensor_id;sensor_type;location;lat;lon;timestamp;P1;durP1;ratioP1;P2;durP2;ratioP2
54849;SDS011;47660;51.334;12.396;2023-07-13T00:00:50;7.25;;;1.20;;
54849;SDS011;47660;51.334;12.396;2023-07-13T00:03:30;2.72;;;1.10;;
54849;SDS011;47660;51.334;12.396;2023-07-13T00:06:00;1.33;;;0.90;;
54849;SDS011;47660;51.334;12.396;2023-07-13T00:08:30;1.67;;;0.90;;
54849;SDS011;47660;51.334;12.396;2023-07-13T00:10:59;2.03;;;1.08;;
54849;SDS011;47660;51.334;12.396;2023-07-13T00:13:30;3.30;;;1.30;;
54849;SDS011;47660;51.334;12.396;2023-07-13T00:16:06;1.60;;;1.30;;
54849;SDS011;47660;51.334;12.396;2023-07-13T00:18:38;3.28;;;1.13;;
54849;SDS011;47660;51.334;12.396;2023-07-13T00:21:22;1.88;;;1.20;;
54849;SDS011;47660;51.334;12.396;2023-07-13T00:23:56;2.05;;;1.10;;
54849;SDS011;47660;51.334;12.396;2023-07-13T00:26:28;1.10;;;1.00;;
54849;SDS011;47660;51.334;12.396;2023-07-13T00:28:53;3.25;;;1.20;;
54849;SDS011;47660;51.334;12.396;2023-07-13T00:31:19;1.63;;;1.05;;
54849;SDS011;47660;51.334;12.396;2023-07-13T00:33:45;1.75;;;1.05;;
54849;SDS011;47660;51.334;12.396;2023-07-13T00:36:13;2.60;;;1.00;;
54849;SDS011;47660;51.334;12.396;2023-07-13T00:38:42;4.18;;;1.10;;
54849;SDS011;47660;51.334;12.396;2023-07-13T00:41:10;2.00;;;1.15;;
54849;SDS011;47660;51.334;12.396;2023-07-13T00:43:36;3.25;;;1.20;;
54849;SDS011;47660;51.334;12.396;2023-07-13T00:48:36;2.65;;;1.10;;
54849;SDS011;47660;51.334;12.396;2023-07-13T00:51:03;2.75;;;1.10;;
54849;SDS011;47660;51.334;12.396;2023-07-13T00:53:35;1.55;;;0.98;;
54849;SDS011;47660;51.334;12.396;2023-07-13T00:56:04;1.42;;;0.90;;
54849;SDS011;47660;51.334;12.396;2023-07-13T00:58:33;2.20;;;1.00;;
54849;SDS011;47660;51.334;12.396;2023-07-13T01:01:00;3.50;;;0.93;;
54849;SDS011;47660;51.334;12.396;2023-07-13T01:03:31;1.23;;;1.00;;
54849;SDS011;47660;51.334;12.396;2023-07-13T01:06:00;4.97;;;1.10;;
54849;SDS011;47660;51.334;12.396;2023-07-13T01:08:31;2.88;;;1.00;;
54849;SDS011;47660;51.334;12.396;2023-07-13T01:11:08;2.88;;;1.05;;
54849;SDS011;47660;51.334;12.396;2023-07-13T01:13:44;1.25;;;0.90;;
54849;SDS011;47660;51.334;12.396;2023-07-13T01:16:18;2.50;;;1.13;;
54849;SDS011;47660;51.334;12.396;2023-07-13T01:18:52;3.70;;;1.10;;
54849;SDS011;47660;51.334;12.396;2023-07-13T01:21:29;1.92;;;0.90;;
54849;SDS011;47660;51.334;12.396;2023-07-13T01:23:57;1.65;;;0.90;;
54849;SDS011;47660;51.334;12.396;2023-07-13T01:26:23;4.40;;;1.17;;
54849;SDS011;47660;51.334;12.396;2023-07-13T01:28:52;4.10;;;1.10;;
54849;SDS011;47660;51.334;12.396;2023-07-13T01:31:17;2.30;;;1.00;;
54849;SDS011;47660;51.334;12.396;2023-07-13T01:33:43;0.98;;;0.90;;
54849;SDS011;47660;51.334;12.396;2023-07-13T01:36:15;2.05;;;0.80;;
54849;SDS011;47660;51.334;12.396;2023-07-13T01:38:49;2.42;;;1.20;;
54849;SDS011;47660;51.334;12.396;2023-07-13T01:41:14;2.63;;;1.10;;
54849;SDS011;47660;51.334;12.396;2023-07-13T01:43:40;3.50;;;1.10;;
54849;SDS011;47660;51.334;12.396;2023-07-13T01:46:07;2.67;;;1.40;;
54849;SDS011;47660;51.334;12.396;2023-07-13T01:48:33;1.67;;;1.00;;
54849;SDS011;47660;51.334;12.396;2023-07-13T01:51:03;3.15;;;1.00;;
54849;SDS011;47660;51.334;12.396;2023-07-13T01:53:31;3.30;;;1.30;;
54849;SDS011;47660;51.334;12.396;2023-07-13T01:55:59;4.72;;;1.50;;
54849;SDS011;47660;51.334;12.396;2023-07-13T01:58:26;2.75;;;1.08;;
54849;SDS011;47660;51.334;12.396;2023-07-13T02:00:55;2.58;;;1.27;;
54849;SDS011;47660;51.334;12.396;2023-07-13T02:03:23;2.55;;;1.35;;
54849;SDS011;47660;51.334;12.396;2023-07-13T02:05:51;1.65;;;1.40;;
54849;SDS011;47660;51.334;12.396;2023-07-13T02:08:17;1.75;;;0.98;;
54849;SDS011;47660;51.334;12.396;2023-07-13T02:10:43;1.88;;;1.00;;
54849;SDS011;47660;51.334;12.396;2023-07-13T02:13:08;1.38;;;1.02;;
54849;SDS011;47660;51.334;12.396;2023-07-13T02:15:40;1.05;;;0.85;;
54849;SDS011;47660;51.334;12.396;2023-07-13T02:18:06;2.28;;;1.10;;
54849;SDS011;47660;51.334;12.396;2023-07-13T02:20:37;2.58;;;1.00;;
54849;SDS011;47660;51.334;12.396;2023-07-13T02:23:05;2.15;;;1.00;;
54849;SDS011;47660;51.334;12.396;2023-07-13T02:25:31;1.45;;;1.00;;
54849;SDS011;47660;51.334;12.396;2023-07-13T02:27:59;1.42;;;1.10;;
54849;SDS011;47660;51.334;12.396;2023-07-13T02:30:26;1.20;;;0.98;;
54849;SDS011;47660;51.334;12.396;2023-07-13T02:32:54;3.75;;;1.40;;
54849;SDS011;47660;51.334;12.396;2023-07-13T02:35:25;1.73;;;1.10;;
54849;SDS011;47660;51.334;12.396;2023-07-13T02:37:53;6.53;;;1.25;;
54849;SDS011;47660;51.334;12.396;2023-07-13T02:40:21;2.40;;;1.10;;
54849;SDS011;47660;51.334;12.396;2023-07-13T02:42:53;2.22;;;1.20;;
54849;SDS011;47660;51.334;12.396;2023-07-13T02:45:23;1.42;;;1.13;;
54849;SDS011;47660;51.334;12.396;2023-07-13T02:47:54;4.55;;;1.00;;
54849;SDS011;47660;51.334;12.396;2023-07-13T02:50:20;1.90;;;0.95;;
54849;SDS011;47660;51.334;12.396;2023-07-13T02:52:45;1.40;;;0.90;;
54849;SDS011;47660;51.334;12.396;2023-07-13T02:55:17;2.30;;;1.20;;
54849;SDS011;47660;51.334;12.396;2023-07-13T02:57:43;0.93;;;0.85;;
54849;SDS011;47660;51.334;12.396;2023-07-13T03:00:11;2.45;;;1.00;;
54849;SDS011;47660;51.334;12.396;2023-07-13T03:02:37;3.40;;;1.40;;
54849;SDS011;47660;51.334;12.396;2023-07-13T03:05:05;3.15;;;1.10;;
54849;SDS011;47660;51.334;12.396;2023-07-13T03:07:31;2.15;;;1.10;;
54849;SDS011;47660;51.334;12.396;2023-07-13T03:09:57;1.23;;;1.13;;
54849;SDS011;47660;51.334;12.396;2023-07-13T03:12:26;2.13;;;1.38;;
54849;SDS011;47660;51.334;12.396;2023-07-13T03:14:52;3.55;;;1.35;;
54849;SDS011;47660;51.334;12.396;2023-07-13T03:17:20;1.48;;;1.23;;
54849;SDS011;47660;51.334;12.396;2023-07-13T03:19:46;3.50;;;1.30;;
54849;SDS011;47660;51.334;12.396;2023-07-13T03:22:14;1.85;;;1.20;;
54849;SDS011;47660;51.334;12.396;2023-07-13T03:24:41;2.92;;;1.30;;
54849;SDS011;47660;51.334;12.396;2023-07-13T03:27:06;3.65;;;1.42;;
54849;SDS011;47660;51.334;12.396;2023-07-13T03:29:32;2.25;;;1.30;;
54849;SDS011;47660;51.334;12.396;2023-07-13T03:32:00;2.58;;;1.38;;
54849;SDS011;47660;51.334;12.396;2023-07-13T03:34:29;1.98;;;1.40;;
54849;SDS011;47660;51.334;12.396;2023-07-13T03:36:57;1.45;;;1.20;;
54849;SDS011;47660;51.334;12.396;2023-07-13T03:39:23;1.38;;;1.10;;
54849;SDS011;47660;51.334;12.396;2023-07-13T03:41:56;2.47;;;1.40;;
54849;SDS011;47660;51.334;12.396;2023-07-13T03:44:21;1.80;;;1.40;;
54849;SDS011;47660;51.334;12.396;2023-07-13T03:46:49;1.88;;;1.45;;
54849;SDS011;47660;51.334;12.396;2023-07-13T03:49:17;1.73;;;1.40;;
54849;SDS011;47660;51.334;12.396;2023-07-13T03:51:43;2.15;;;1.42;;
54849;SDS011;47660;51.334;12.396;2023-07-13T03:54:10;3.03;;;1.50;;
54849;SDS011;47660;51.334;12.396;2023-07-13T03:56:39;2.08;;;1.63;;
54849;SDS011;47660;51.334;12.396;2023-07-13T03:59:10;4.75;;;1.20;;
54849;SDS011;47660;51.334;12.396;2023-07-13T04:01:35;2.15;;;1.40;;
54849;SDS011;47660;51.334;12.396;2023-07-13T04:04:08;2.20;;;1.58;;
54849;SDS011;47660;51.334;12.396;2023-07-13T04:06:34;2.33;;;1.58;;
54849;SDS011;47660;51.334;12.396;2023-07-13T04:09:03;3.42;;;1.25;;
54849;SDS011;47660;51.334;12.396;2023-07-13T04:11:30;4.82;;;1.92;;
54849;SDS011;47660;51.334;12.396;2023-07-13T04:14:01;3.28;;;1.35;;
54849;SDS011;47660;51.334;12.396;2023-07-13T04:16:29;2.80;;;1.70;;
54849;SDS011;47660;51.334;12.396;2023-07-13T04:19:01;2.65;;;1.60;;
54849;SDS011;47660;51.334;12.396;2023-07-13T04:21:30;1.60;;;1.45;;
54849;SDS011;47660;51.334;12.396;2023-07-13T04:24:01;3.17;;;1.50;;
54849;SDS011;47660;51.334;12.396;2023-07-13T04:26:28;2.83;;;1.40;;
54849;SDS011;47660;51.334;12.396;2023-07-13T04:28:54;4.40;;;1.70;;
54849;SDS011;47660;51.334;12.396;2023-07-13T04:31:21;1.60;;;1.50;;
54849;SDS011;47660;51.334;12.396;2023-07-13T04:33:50;2.42;;;1.75;;
54849;SDS011;47660;51.334;12.396;2023-07-13T04:36:18;4.05;;;2.05;;
54849;SDS011;47660;51.334;12.396;2023-07-13T04:38:46;3.05;;;1.50;;
54849;SDS011;47660;51.334;12.396;2023-07-13T04:41:15;1.90;;;1.55;;
54849;SDS011;47660;51.334;12.396;2023-07-13T04:43:46;2.53;;;1.77;;
54849;SDS011;47660;51.334;12.396;2023-07-13T04:46:17;2.40;;;1.50;;
54849;SDS011;47660;51.334;12.396;2023-07-13T04:48:44;3.08;;;1.92;;
54849;SDS011;47660;51.334;12.396;2023-07-13T04:51:12;2.72;;;1.90;;
54849;SDS011;47660;51.334;12.396;2023-07-13T04:53:37;3.53;;;2.00;;
54849;SDS011;47660;51.334;12.396;2023-07-13T04:56:03;2.90;;;1.70;;
54849;SDS011;47660;51.334;12.396;2023-07-13T04:58:34;2.80;;;1.45;;
54849;SDS011;47660;51.334;12.396;2023-07-13T05:01:00;3.25;;;1.77;;
54849;SDS011;47660;51.334;12.396;2023-07-13T05:03:30;2.63;;;1.70;;
54849;SDS011;47660;51.334;12.396;2023-07-13T05:06:00;2.60;;;1.80;;
54849;SDS011;47660;51.334;12.396;2023-07-13T05:08:29;2.45;;;1.60;;
54849;SDS011;47660;51.334;12.396;2023-07-13T05:10:59;2.95;;;2.05;;
54849;SDS011;47660;51.334;12.396;2023-07-13T05:13:25;5.22;;;1.67;;
54849;SDS011;47660;51.334;12.396;2023-07-13T05:16:01;3.72;;;1.67;;
54849;SDS011;47660;51.334;12.396;2023-07-13T05:18:28;1.77;;;1.50;;
54849;SDS011;47660;51.334;12.396;2023-07-13T05:21:01;1.75;;;1.40;;
54849;SDS011;47660;51.334;12.396;2023-07-13T05:23:33;4.43;;;1.50;;
54849;SDS011;47660;51.334;12.396;2023-07-13T05:26:04;3.20;;;1.65;;
54849;SDS011;47660;51.334;12.396;2023-07-13T05:28:30;3.30;;;1.45;;
54849;SDS011;47660;51.334;12.396;2023-07-13T05:30:59;2.13;;;1.77;;
54849;SDS011;47660;51.334;12.396;2023-07-13T05:33:27;2.97;;;1.70;;
54849;SDS011;47660;51.334;12.396;2023-07-13T05:35:58;4.35;;;1.40;;
54849;SDS011;47660;51.334;12.396;2023-07-13T05:38:25;1.60;;;1.40;;
54849;SDS011;47660;51.334;12.396;2023-07-13T05:40:55;4.10;;;1.58;;
54849;SDS011;47660;51.334;12.396;2023-07-13T05:43:24;4.72;;;1.55;;
54849;SDS011;47660;51.334;12.396;2023-07-13T05:45:52;4.57;;;2.55;;
54849;SDS011;47660;51.334;12.396;2023-07-13T05:48:21;4.05;;;1.60;;
54849;SDS011;47660;51.334;12.396;2023-07-13T05:50:49;3.53;;;1.48;;
54849;SDS011;47660;51.334;12.396;2023-07-13T05:53:25;3.13;;;1.33;;
54849;SDS011;47660;51.334;12.396;2023-07-13T05:55:50;3.83;;;1.88;;
54849;SDS011;47660;51.334;12.396;2023-07-13T05:58:19;4.68;;;1.40;;
54849;SDS011;47660;51.334;12.396;2023-07-13T06:00:48;3.15;;;2.00;;
54849;SDS011;47660;51.334;12.396;2023-07-13T06:03:23;4.35;;;1.75;;
54849;SDS011;47660;51.334;12.396;2023-07-13T06:05:58;3.60;;;1.65;;
54849;SDS011;47660;51.334;12.396;2023-07-13T06:08:26;2.03;;;1.25;;
54849;SDS011;47660;51.334;12.396;2023-07-13T06:10:55;3.10;;;1.65;;
54849;SDS011;47660;51.334;12.396;2023-07-13T06:13:29;3.33;;;1.50;;
54849;SDS011;47660;51.334;12.396;2023-07-13T06:15:58;2.00;;;1.00;;
54849;SDS011;47660;51.334;12.396;2023-07-13T06:18:29;2.60;;;1.42;;
54849;SDS011;47660;51.334;12.396;2023-07-13T06:20:59;6.70;;;2.10;;
54849;SDS011;47660;51.334;12.396;2023-07-13T06:23:32;3.60;;;1.95;;
54849;SDS011;47660;51.334;12.396;2023-07-13T06:26:01;2.30;;;1.30;;
54849;SDS011;47660;51.334;12.396;2023-07-13T06:28:26;2.05;;;1.23;;
54849;SDS011;47660;51.334;12.396;2023-07-13T06:30:51;3.25;;;1.38;;
54849;SDS011;47660;51.334;12.396;2023-07-13T06:33:41;2.38;;;1.20;;
54849;SDS011;47660;51.334;12.396;2023-07-13T06:36:07;2.47;;;1.38;;
54849;SDS011;47660;51.334;12.396;2023-07-13T06:38:38;1.92;;;1.20;;
54849;SDS011;47660;51.334;12.396;2023-07-13T06:41:05;1.70;;;1.30;;
54849;SDS011;47660;51.334;12.396;2023-07-13T06:43:34;2.28;;;1.40;;
54849;SDS011;47660;51.334;12.396;2023-07-13T06:46:03;2.70;;;1.20;;
54849;SDS011;47660;51.334;12.396;2023-07-13T06:48:37;2.60;;;1.67;;
54849;SDS011;47660;51.334;12.396;2023-07-13T06:51:05;2.25;;;1.30;;
54849;SDS011;47660;51.334;12.396;2023-07-13T06:53:39;1.30;;;1.00;;
54849;SDS011;47660;51.334;12.396;2023-07-13T06:56:04;3.45;;;1.17;;
54849;SDS011;47660;51.334;12.396;2023-07-13T06:58:30;5.18;;;1.20;;
54849;SDS011;47660;51.334;12.396;2023-07-13T07:01:11;3.47;;;1.45;;
54849;SDS011;47660;51.334;12.396;2023-07-13T07:03:39;1.50;;;0.98;;
54849;SDS011;47660;51.334;12.396;2023-07-13T07:06:12;2.50;;;1.00;;
54849;SDS011;47660;51.334;12.396;2023-07-13T07:08:51;1.70;;;0.95;;
54849;SDS011;47660;51.334;12.396;2023-07-13T07:11:23;0.80;;;0.80;;
54849;SDS011;47660;51.334;12.396;2023-07-13T07:14:04;2.30;;;1.30;;
54849;SDS011;47660;51.334;12.396;2023-07-13T07:16:33;2.83;;;1.50;;
54849;SDS011;47660;51.334;12.396;2023-07-13T07:19:20;5.60;;;1.45;;
54849;SDS011;47660;51.334;12.396;2023-07-13T07:21:58;3.70;;;1.00;;
54849;SDS011;47660;51.334;12.396;2023-07-13T07:24:32;2.05;;;1.10;;
54849;SDS011;47660;51.334;12.396;2023-07-13T07:27:22;2.83;;;1.20;;
54849;SDS011;47660;51.334;12.396;2023-07-13T07:30:12;4.95;;;1.23;;
54849;SDS011;47660;51.334;12.396;2023-07-13T07:32:43;3.88;;;1.40;;
54849;SDS011;47660;51.334;12.396;2023-07-13T07:35:14;1.90;;;1.23;;
54849;SDS011;47660;51.334;12.396;2023-07-13T07:37:43;2.75;;;1.38;;
54849;SDS011;47660;51.334;12.396;2023-07-13T07:40:18;2.45;;;1.15;;
54849;SDS011;47660;51.334;12.396;2023-07-13T07:42:47;1.40;;;1.10;;
54849;SDS011;47660;51.334;12.396;2023-07-13T07:45:19;2.53;;;1.10;;
54849;SDS011;47660;51.334;12.396;2023-07-13T07:47:50;3.60;;;1.38;;
54849;SDS011;47660;51.334;12.396;2023-07-13T07:50:22;2.67;;;1.65;;
54849;SDS011;47660;51.334;12.396;2023-07-13T07:52:54;3.13;;;1.00;;
54849;SDS011;47660;51.334;12.396;2023-07-13T07:55:23;3.25;;;1.10;;
54849;SDS011;47660;51.334;12.396;2023-07-13T07:57:58;4.43;;;1.20;;
54849;SDS011;47660;51.334;12.396;2023-07-13T08:00:29;2.10;;;0.93;;
54849;SDS011;47660;51.334;12.396;2023-07-13T08:03:08;2.08;;;1.30;;
54849;SDS011;47660;51.334;12.396;2023-07-13T08:05:43;1.15;;;0.80;;
54849;SDS011;47660;51.334;12.396;2023-07-13T08:08:15;3.55;;;1.17;;
54849;SDS011;47660;51.334;12.396;2023-07-13T08:10:45;1.83;;;0.80;;
54849;SDS011;47660;51.334;12.396;2023-07-13T08:13:19;2.20;;;0.98;;
54849;SDS011;47660;51.334;12.396;2023-07-13T08:16:03;4.82;;;1.20;;
54849;SDS011;47660;51.334;12.396;2023-07-13T08:18:39;3.50;;;1.00;;
54849;SDS011;47660;51.334;12.396;2023-07-13T08:24:16;2.22;;;1.05;;
54849;SDS011;47660;51.334;12.396;2023-07-13T08:26:44;2.17;;;1.75;;
54849;SDS011;47660;51.334;12.396;2023-07-13T08:29:20;3.30;;;1.15;;
54849;SDS011;47660;51.334;12.396;2023-07-13T08:32:01;1.27;;;1.10;;
54849;SDS011;47660;51.334;12.396;2023-07-13T08:34:30;7.15;;;1.20;;
54849;SDS011;47660;51.334;12.396;2023-07-13T08:36:59;1.65;;;1.00;;
54849;SDS011;47660;51.334;12.396;2023-07-13T08:39:28;4.68;;;1.00;;
54849;SDS011;47660;51.334;12.396;2023-07-13T08:48:09;2.17;;;1.00;;
54849;SDS011;47660;51.334;12.396;2023-07-13T08:51:04;5.35;;;1.15;;
54849;SDS011;47660;51.334;12.396;2023-07-13T08:53:54;0.98;;;0.90;;
54849;SDS011;47660;51.334;12.396;2023-07-13T08:56:32;4.85;;;1.35;;
54849;SDS011;47660;51.334;12.396;2023-07-13T08:59:16;2.45;;;0.80;;
54849;SDS011;47660;51.334;12.396;2023-07-13T09:13:23;2.20;;;0.82;;
54849;SDS011;47660;51.334;12.396;2023-07-13T09:16:08;1.23;;;0.70;;
54849;SDS011;47660;51.334;12.396;2023-07-13T09:18:39;3.67;;;1.00;;
54849;SDS011;47660;51.334;12.396;2023-07-13T09:21:20;9.85;;;1.27;;
54849;SDS011;47660;51.334;12.396;2023-07-13T09:23:47;1.85;;;0.95;;
54849;SDS011;47660;51.334;12.396;2023-07-13T09:26:28;2.45;;;1.00;;
54849;SDS011;47660;51.334;12.396;2023-07-13T09:29:21;3.75;;;0.80;;
54849;SDS011;47660;51.334;12.396;2023-07-13T09:31:58;2.33;;;1.05;;
54849;SDS011;47660;51.334;12.396;2023-07-13T09:34:33;5.80;;;1.25;;
54849;SDS011;47660;51.334;12.396;2023-07-13T09:37:19;1.42;;;1.10;;
54849;SDS011;47660;51.334;12.396;2023-07-13T09:40:04;2.97;;;1.17;;
54849;SDS011;47660;51.334;12.396;2023-07-13T09:42:42;1.88;;;1.00;;
54849;SDS011;47660;51.334;12.396;2023-07-13T09:45:32;1.35;;;1.00;;
54849;SDS011;47660;51.334;12.396;2023-07-13T09:48:14;2.08;;;1.25;;
54849;SDS011;47660;51.334;12.396;2023-07-13T09:50:45;1.98;;;0.90;;
54849;SDS011;47660;51.334;12.396;2023-07-13T09:53:15;3.05;;;0.93;;
54849;SDS011;47660;51.334;12.396;2023-07-13T09:55:58;1.67;;;1.00;;
54849;SDS011;47660;51.334;12.396;2023-07-13T09:58:33;2.55;;;1.00;;
54849;SDS011;47660;51.334;12.396;2023-07-13T10:01:05;1.98;;;1.10;;
54849;SDS011;47660;51.334;12.396;2023-07-13T10:03:36;4.35;;;1.10;;
54849;SDS011;47660;51.334;12.396;2023-07-13T10:06:15;1.83;;;1.13;;
54849;SDS011;47660;51.334;12.396;2023-07-13T10:08:47;1.58;;;0.98;;
54849;SDS011;47660;51.334;12.396;2023-07-13T10:11:19;1.85;;;0.93;;
54849;SDS011;47660;51.334;12.396;2023-07-13T10:14:02;2.50;;;1.23;;
54849;SDS011;47660;51.334;12.396;2023-07-13T10:16:52;2.80;;;0.90;;
54849;SDS011;47660;51.334;12.396;2023-07-13T10:19:28;1.27;;;0.80;;
54849;SDS011;47660;51.334;12.396;2023-07-13T10:24:55;2.35;;;1.00;;
54849;SDS011;47660;51.334;12.396;2023-07-13T10:27:32;0.93;;;0.82;;
54849;SDS011;47660;51.334;12.396;2023-07-13T10:30:14;1.33;;;1.08;;
54849;SDS011;47660;51.334;12.396;2023-07-13T10:32:57;2.67;;;0.80;;
54849;SDS011;47660;51.334;12.396;2023-07-13T10:35:30;2.17;;;1.33;;
54849;SDS011;47660;51.334;12.396;2023-07-13T10:38:06;1.48;;;1.05;;
54849;SDS011;47660;51.334;12.396;2023-07-13T10:41:06;1.73;;;0.95;;
54849;SDS011;47660;51.334;12.396;2023-07-13T10:43:47;2.05;;;1.00;;
54849;SDS011;47660;51.334;12.396;2023-07-13T10:46:19;1.85;;;1.00;;
54849;SDS011;47660;51.334;12.396;2023-07-13T10:49:14;4.30;;;1.27;;
54849;SDS011;47660;51.334;12.396;2023-07-13T10:51:48;1.10;;;1.00;;
54849;SDS011;47660;51.334;12.396;2023-07-13T10:54:22;2.70;;;1.10;;
54849;SDS011;47660;51.334;12.396;2023-07-13T10:59:41;2.13;;;1.13;;
54849;SDS011;47660;51.334;12.396;2023-07-13T11:02:32;2.33;;;1.00;;
54849;SDS011;47660;51.334;12.396;2023-07-13T11:05:01;1.27;;;0.85;;
54849;SDS011;47660;51.334;12.396;2023-07-13T11:08:18;1.38;;;0.95;;
54849;SDS011;47660;51.334;12.396;2023-07-13T11:10:53;1.08;;;0.80;;
54849;SDS011;47660;51.334;12.396;2023-07-13T11:13:36;5.25;;;0.85;;
54849;SDS011;47660;51.334;12.396;2023-07-13T11:16:13;2.83;;;0.90;;
54849;SDS011;47660;51.334;12.396;2023-07-13T11:21:27;2.20;;;0.80;;
54849;SDS011;47660;51.334;12.396;2023-07-13T11:32:01;4.82;;;0.90;;
54849;SDS011;47660;51.334;12.396;2023-07-13T11:34:56;4.90;;;0.82;;
54849;SDS011;47660;51.334;12.396;2023-07-13T11:37:25;3.20;;;0.85;;
54849;SDS011;47660;51.334;12.396;2023-07-13T11:40:00;2.78;;;0.77;;
54849;SDS011;47660;51.334;12.396;2023-07-13T11:42:34;2.17;;;0.60;;
54849;SDS011;47660;51.334;12.396;2023-07-13T11:45:14;3.40;;;0.88;;
54849;SDS011;47660;51.334;12.396;2023-07-13T11:47:48;0.97;;;0.93;;
54849;SDS011;47660;51.334;12.396;2023-07-13T11:50:21;1.77;;;0.77;;
54849;SDS011;47660;51.334;12.396;2023-07-13T11:52:57;1.33;;;1.10;;
54849;SDS011;47660;51.334;12.396;2023-07-13T11:55:32;0.82;;;0.82;;
54849;SDS011;47660;51.334;12.396;2023-07-13T11:58:03;2.58;;;0.68;;
54849;SDS011;47660;51.334;12.396;2023-07-13T12:00:29;3.47;;;0.60;;
54849;SDS011;47660;51.334;12.396;2023-07-13T12:03:01;4.13;;;0.80;;
54849;SDS011;47660;51.334;12.396;2023-07-13T12:05:31;0.98;;;0.75;;
54849;SDS011;47660;51.334;12.396;2023-07-13T12:08:08;1.65;;;0.88;;
54849;SDS011;47660;51.334;12.396;2023-07-13T12:10:37;0.70;;;0.50;;
54849;SDS011;47660;51.334;12.396;2023-07-13T12:13:08;1.27;;;0.43;;
54849;SDS011;47660;51.334;12.396;2023-07-13T12:15:41;0.70;;;0.65;;
54849;SDS011;47660;51.334;12.396;2023-07-13T12:18:27;4.13;;;0.68;;
54849;SDS011;47660;51.334;12.396;2023-07-13T12:21:09;1.58;;;0.40;;
54849;SDS011;47660;51.334;12.396;2023-07-13T12:23:49;0.50;;;0.50;;
54849;SDS011;47660;51.334;12.396;2023-07-13T12:26:21;6.00;;;0.93;;
54849;SDS011;47660;51.334;12.396;2023-07-13T12:28:55;2.35;;;0.60;;
54849;SDS011;47660;51.334;12.396;2023-07-13T12:31:34;0.57;;;0.50;;
54849;SDS011;47660;51.334;12.396;2023-07-13T12:34:08;0.55;;;0.50;;
54849;SDS011;47660;51.334;12.396;2023-07-13T12:36:40;3.38;;;0.70;;
54849;SDS011;47660;51.334;12.396;2023-07-13T12:39:27;0.47;;;0.47;;
54849;SDS011;47660;51.334;12.396;2023-07-13T12:42:23;0.80;;;0.43;;
54849;SDS011;47660;51.334;12.396;2023-07-13T12:45:03;0.73;;;0.50;;
54849;SDS011;47660;51.334;12.396;2023-07-13T12:47:57;0.40;;;0.40;;
54849;SDS011;47660;51.334;12.396;2023-07-13T12:50:37;0.70;;;0.57;;
54849;SDS011;47660;51.334;12.396;2023-07-13T12:53:15;0.40;;;0.40;;
54849;SDS011;47660;51.334;12.396;2023-07-13T12:58:36;0.52;;;0.52;;
54849;SDS011;47660;51.334;12.396;2023-07-13T13:01:22;1.13;;;0.50;;
54849;SDS011;47660;51.334;12.396;2023-07-13T13:04:13;0.50;;;0.35;;
54849;SDS011;47660;51.334;12.396;2023-07-13T13:06:59;0.68;;;0.50;;
54849;SDS011;47660;51.334;12.396;2023-07-13T13:09:37;1.90;;;0.50;;
54849;SDS011;47660;51.334;12.396;2023-07-13T13:12:08;0.52;;;0.50;;
54849;SDS011;47660;51.334;12.396;2023-07-13T13:14:39;3.50;;;0.60;;
54849;SDS011;47660;51.334;12.396;2023-07-13T13:17:22;1.27;;;0.40;;
54849;SDS011;47660;51.334;12.396;2023-07-13T13:19:55;1.23;;;0.40;;
54849;SDS011;47660;51.334;12.396;2023-07-13T13:22:30;0.55;;;0.50;;
54849;SDS011;47660;51.334;12.396;2023-07-13T13:24:56;0.77;;;0.40;;
54849;SDS011;47660;51.334;12.396;2023-07-13T13:27:33;2.13;;;0.68;;
54849;SDS011;47660;51.334;12.396;2023-07-13T13:30:03;1.98;;;0.60;;
54849;SDS011;47660;51.334;12.396;2023-07-13T13:32:38;1.23;;;0.50;;
54849;SDS011;47660;51.334;12.396;2023-07-13T13:35:17;1.73;;;0.40;;
54849;SDS011;47660;51.334;12.396;2023-07-13T13:37:52;2.00;;;0.50;;
54849;SDS011;47660;51.334;12.396;2023-07-13T13:40:26;2.25;;;0.73;;
54849;SDS011;47660;51.334;12.396;2023-07-13T13:42:59;0.73;;;0.60;;
54849;SDS011;47660;51.334;12.396;2023-07-13T13:45:42;1.77;;;0.85;;
54849;SDS011;47660;51.334;12.396;2023-07-13T13:48:18;1.50;;;0.50;;
54849;SDS011;47660;51.334;12.396;2023-07-13T13:50:59;6.00;;;0.75;;
54849;SDS011;47660;51.334;12.396;2023-07-13T13:53:26;0.77;;;0.55;;
54849;SDS011;47660;51.334;12.396;2023-07-13T13:55:58;0.60;;;0.47;;
54849;SDS011;47660;51.334;12.396;2023-07-13T13:58:32;1.00;;;0.57;;
54849;SDS011;47660;51.334;12.396;2023-07-13T14:01:00;4.13;;;1.27;;
54849;SDS011;47660;51.334;12.396;2023-07-13T14:03:34;4.22;;;1.00;;
54849;SDS011;47660;51.334;12.396;2023-07-13T14:06:02;2.05;;;0.40;;
54849;SDS011;47660;51.334;12.396;2023-07-13T14:08:33;0.70;;;0.45;;
54849;SDS011;47660;51.334;12.396;2023-07-13T14:11:01;2.20;;;0.50;;
54849;SDS011;47660;51.334;12.396;2023-07-13T14:13:35;1.92;;;0.50;;
54849;SDS011;47660;51.334;12.396;2023-07-13T14:16:15;2.80;;;0.90;;
54849;SDS011;47660;51.334;12.396;2023-07-13T14:18:43;1.52;;;0.65;;
54849;SDS011;47660;51.334;12.396;2023-07-13T14:21:20;1.55;;;0.47;;
54849;SDS011;47660;51.334;12.396;2023-07-13T14:23:52;1.50;;;0.50;;
54849;SDS011;47660;51.334;12.396;2023-07-13T14:26:27;1.00;;;0.47;;
54849;SDS011;47660;51.334;12.396;2023-07-13T14:29:08;3.63;;;0.65;;
54849;SDS011;47660;51.334;12.396;2023-07-13T14:31:41;1.27;;;0.40;;
54849;SDS011;47660;51.334;12.396;2023-07-13T14:34:13;1.33;;;0.65;;
54849;SDS011;47660;51.334;12.396;2023-07-13T14:36:42;2.45;;;0.80;;
54849;SDS011;47660;51.334;12.396;2023-07-13T14:41:51;7.32;;;0.50;;
54849;SDS011;47660;51.334;12.396;2023-07-13T14:44:50;1.20;;;0.77;;
54849;SDS011;47660;51.334;12.396;2023-07-13T14:47:24;7.65;;;0.98;;
54849;SDS011;47660;51.334;12.396;2023-07-13T14:49:57;4.82;;;0.63;;
54849;SDS011;47660;51.334;12.396;2023-07-13T14:52:32;1.00;;;0.80;;
54849;SDS011;47660;51.334;12.396;2023-07-13T14:54:57;0.50;;;0.43;;
54849;SDS011;47660;51.334;12.396;2023-07-13T14:57:27;1.27;;;0.70;;
54849;SDS011;47660;51.334;12.396;2023-07-13T14:59:57;0.60;;;0.60;;
54849;SDS011;47660;51.334;12.396;2023-07-13T15:02:32;1.23;;;0.55;;
54849;SDS011;47660;51.334;12.396;2023-07-13T15:05:04;2.25;;;0.70;;
54849;SDS011;47660;51.334;12.396;2023-07-13T15:07:58;1.13;;;0.50;;
54849;SDS011;47660;51.334;12.396;2023-07-13T15:10:43;2.13;;;0.68;;
54849;SDS011;47660;51.334;12.396;2023-07-13T15:13:28;1.23;;;0.50;;
54849;SDS011;47660;51.334;12.396;2023-07-13T15:16:16;4.55;;;0.80;;
54849;SDS011;47660;51.334;12.396;2023-07-13T15:19:09;2.38;;;0.70;;
54849;SDS011;47660;51.334;12.396;2023-07-13T15:21:47;0.73;;;0.70;;
54849;SDS011;47660;51.334;12.396;2023-07-13T15:24:20;1.80;;;0.55;;
54849;SDS011;47660;51.334;12.396;2023-07-13T15:26:50;3.90;;;0.70;;
54849;SDS011;47660;51.334;12.396;2023-07-13T15:29:20;0.93;;;0.55;;
54849;SDS011;47660;51.334;12.396;2023-07-13T15:31:54;0.98;;;0.47;;
54849;SDS011;47660;51.334;12.396;2023-07-13T15:34:28;1.45;;;0.52;;
54849;SDS011;47660;51.334;12.396;2023-07-13T15:37:10;1.65;;;0.60;;
54849;SDS011;47660;51.334;12.396;2023-07-13T15:39:46;3.28;;;1.33;;
54849;SDS011;47660;51.334;12.396;2023-07-13T15:42:23;1.77;;;0.88;;
54849;SDS011;47660;51.334;12.396;2023-07-13T15:44:56;3.00;;;0.70;;
54849;SDS011;47660;51.334;12.396;2023-07-13T15:47:37;2.20;;;0.65;;
54849;SDS011;47660;51.334;12.396;2023-07-13T15:50:31;1.30;;;0.70;;
54849;SDS011;47660;51.334;12.396;2023-07-13T15:53:38;1.38;;;0.88;;